Time;durP1;ratioP1;P1;durP2;ratioP2;P2;SDS_P1;SDS_P2;PMS_P1;PMS_P2;Temp;Humidity;BMP_temperature;BMP_pressure;BME280_temperature;BME280_humidity;BME280_pressure;Samples;Min_cycle;Max_cycle;Signal;HPM_P1;HPM_P2
2023/06/06 00:01:15;;;;;;;13.98;11.05;;;;;;;15.64;69.82;101909.34;4977689;28;20380;-60
2023/06/06 00:03:41;;;;;;;16.80;11.75;;;;;;;15.46;70.63;101906.09;4984585;28;20019;-60
2023/06/06 00:06:07;;;;;;;14.77;11.07;;;;;;;15.44;70.58;101903.53;4971823;28;20023;-60
2023/06/06 00:08:33;;;;;;;14.63;12.18;;;;;;;15.44;70.42;101900.84;4970849;28;20042;-61
2023/06/06 00:10:59;;;;;;;15.18;12.05;;;;;;;15.28;70.88;101910.00;4952196;28;20060;-60
2023/06/06 00:13:27;;;;;;;14.27;11.65;;;;;;;15.28;71.07;101902.81;5001742;28;20458;-60
2023/06/06 00:15:57;;;;;;;18.98;12.18;;;;;;;15.30;70.74;101908.94;4970334;28;20058;-60
2023/06/06 00:18:26;;;;;;;19.60;12.27;;;;;;;15.34;70.71;101912.28;4979945;28;20480;-60
2023/06/06 00:20:51;;;;;;;18.85;11.80;;;;;;;15.17;71.07;101900.84;4989986;28;20088;-60
2023/06/06 00:23:17;;;;;;;17.73;11.90;;;;;;;15.10;71.32;101901.34;4990031;28;20109;-61
2023/06/06 00:25:42;;;;;;;13.48;11.23;;;;;;;15.05;71.22;101895.44;4970350;28;20486;-60
2023/06/06 00:28:10;;;;;;;18.08;11.80;;;;;;;15.13;71.25;101899.31;5070459;28;20083;-60
2023/06/06 00:30:36;;;;;;;16.50;12.50;;;;;;;15.20;70.77;101905.13;4969796;28;20022;-60
2023/06/06 00:33:01;;;;;;;13.15;11.75;;;;;;;15.21;70.95;101905.06;4953032;28;20100;-61
2023/06/06 00:35:26;;;;;;;16.70;12.05;;;;;;;15.18;70.59;101891.00;4961483;28;20066;-60
2023/06/06 00:37:52;;;;;;;15.68;11.88;;;;;;;15.13;71.05;101903.81;5066342;28;20424;-60
2023/06/06 00:40:17;;;;;;;17.05;12.65;;;;;;;14.92;71.61;101903.41;4969247;28;20026;-60
2023/06/06 00:42:42;;;;;;;17.35;12.48;;;;;;;14.93;71.88;101907.78;4978147;28;20168;-60
2023/06/06 00:45:08;;;;;;;16.05;12.10;;;;;;;14.84;71.84;101903.03;4968708;28;20023;-61
2023/06/06 00:47:37;;;;;;;17.90;12.55;;;;;;;14.97;71.41;101899.47;4968575;28;20027;-60
2023/06/06 00:50:02;;;;;;;15.18;11.85;;;;;;;14.88;71.52;101886.69;4970236;28;20516;-61
2023/06/06 00:52:28;;;;;;;16.35;12.18;;;;;;;14.68;72.15;101905.84;4975108;28;20093;-61
2023/06/06 00:54:54;;;;;;;15.25;12.25;;;;;;;14.53;72.78;101907.66;4969146;28;20045;-61
2023/06/06 00:57:20;;;;;;;16.50;12.10;;;;;;;14.59;72.72;101899.25;4968673;28;20026;-61
2023/06/06 00:59:48;;;;;;;13.80;12.00;;;;;;;14.56;72.73;101894.09;5069930;28;20030;-61
2023/06/06 01:02:17;;;;;;;15.83;12.37;;;;;;;14.70;72.49;101907.44;4969845;28;20031;-60
2023/06/06 01:04:43;;;;;;;14.33;12.23;;;;;;;14.76;72.05;101887.44;4970005;28;20274;-60
2023/06/06 01:07:09;;;;;;;16.15;13.32;;;;;;;14.62;72.06;101906.19;4970329;28;20034;-60
2023/06/06 01:09:36;;;;;;;16.38;11.80;;;;;;;14.54;72.67;101901.34;5010512;28;20031;-61
2023/06/06 01:12:09;;;;;;;18.70;13.43;;;;;;;14.49;72.74;101900.72;5071587;28;20016;-60
2023/06/06 01:15:06;;;;;;;17.35;12.10;;;;;;;14.77;72.00;101906.09;4998744;28;20034;-61
2023/06/06 01:17:36;;;;;;;14.68;12.15;;;;;;;14.75;71.63;101883.91;4969716;28;20027;-61
2023/06/06 01:20:06;;;;;;;16.30;12.95;;;;;;;14.72;71.50;101894.81;4969769;28;20030;-60
2023/06/06 01:22:33;;;;;;;14.77;12.80;;;;;;;14.73;71.98;101904.56;4969788;28;20141;-61
2023/06/06 01:24:58;;;;;;;15.43;12.40;;;;;;;14.40;72.67;101898.63;4969340;28;20077;-60
2023/06/06 03:01:30;;;;;;;15.65;12.52;;;;;;;13.35;75.14;101904.03;5050391;28;20060;-61
2023/06/06 03:03:56;;;;;;;14.75;13.25;;;;;;;13.22;75.63;101905.66;4945168;28;20031;-61
2023/06/06 03:06:23;;;;;;;14.40;11.73;;;;;;;13.22;75.67;101905.66;4949881;28;20085;-61
2023/06/06 03:08:54;;;;;;;13.23;11.82;;;;;;;13.21;75.63;101909.25;4951370;29;20023;-61
2023/06/06 03:11:21;;;;;;;15.18;12.25;;;;;;;13.32;75.33;101907.72;4951600;28;20027;-61
2023/06/06 03:13:46;;;;;;;18.92;13.30;;;;;;;13.20;75.53;101905.75;4951059;28;20174;-61
2023/06/06 03:16:15;;;;;;;15.73;12.75;;;;;;;13.10;75.77;101908.06;4935027;28;20114;-61
2023/06/06 03:18:41;;;;;;;15.07;12.53;;;;;;;13.13;75.69;101907.03;4932950;29;20036;-61
2023/06/06 03:21:09;;;;;;;15.35;12.57;;;;;;;13.18;75.13;101911.19;4933424;29;20038;-61
2023/06/06 03:23:38;;;;;;;16.45;13.00;;;;;;;13.06;75.88;101901.19;4949700;29;20062;-61
2023/06/06 03:26:04;;;;;;;16.42;12.45;;;;;;;13.18;75.47;101905.00;4950764;28;20034;-61
2023/06/06 03:28:31;;;;;;;14.55;11.88;;;;;;;13.15;75.39;101907.84;4950352;28;20031;-61
2023/06/06 03:30:57;;;;;;;14.80;12.85;;;;;;;12.88;76.05;101902.22;4949174;28;20385;-60
2023/06/06 03:33:23;;;;;;;13.05;11.65;;;;;;;12.76;76.72;101911.75;4941997;28;20035;-61
2023/06/06 03:35:48;;;;;;;14.27;12.45;;;;;;;12.78;76.51;101893.00;4951006;28;20031;-61
2023/06/06 03:38:16;;;;;;;14.07;11.88;;;;;;;12.75;76.85;101901.19;4949942;28;20118;-61
2023/06/06 03:40:42;;;;;;;19.20;12.68;;;;;;;12.85;76.84;101910.41;4949997;28;20038;-61
2023/06/06 03:43:07;;;;;;;13.60;12.10;;;;;;;12.91;76.40;101907.38;4949040;28;20035;-61
2023/06/06 03:45:33;;;;;;;17.92;12.32;;;;;;;12.89;76.15;101899.47;4950710;28;20031;-60
2023/06/06 03:47:58;;;;;;;14.27;12.48;;;;;;;12.84;76.73;101908.69;4949698;28;20031;-61
2023/06/06 03:50:25;;;;;;;16.65;12.65;;;;;;;12.83;76.61;101909.63;4947556;28;20161;-61
2023/06/06 03:52:51;;;;;;;13.75;12.15;;;;;;;12.79;76.65;101906.25;4939750;28;20474;-61
2023/06/06 03:55:16;;;;;;;14.35;12.73;;;;;;;12.87;76.49;101911.19;4943499;28;20028;-61
2023/06/06 03:57:42;;;;;;;16.23;11.55;;;;;;;12.88;76.33;101908.44;4940666;29;20039;-61
2023/06/06 04:00:14;;;;;;;13.88;12.32;;;;;;;12.75;76.68;101911.88;4949005;28;20111;-61
2023/06/06 04:02:46;;;;;;;14.57;12.48;;;;;;;12.86;76.52;101910.31;4951365;28;20524;-61
2023/06/06 04:05:13;;;;;;;14.48;13.02;;;;;;;12.73;76.69;101909.25;4951604;28;20077;-60
2023/06/06 04:07:38;;;;;;;14.00;12.65;;;;;;;12.82;76.99;101915.91;4951696;28;20041;-61
2023/06/06 04:10:04;;;;;;;15.65;13.07;;;;;;;12.76;76.76;101917.09;4950128;28;20114;-61
2023/06/06 04:12:32;;;;;;;12.95;11.50;;;;;;;12.94;76.21;101910.75;4957796;28;20452;-61
2023/06/06 04:15:00;;;;;;;14.25;12.75;;;;;;;12.83;76.29;101915.84;4970126;28;20022;-61
2023/06/06 04:17:26;;;;;;;18.75;13.13;;;;;;;12.91;76.33;101910.94;4979085;28;20039;-61
2023/06/06 04:19:52;;;;;;;14.20;11.85;;;;;;;12.75;76.49;101911.88;5052300;28;20033;-61
2023/06/06 04:22:19;;;;;;;15.80;12.38;;;;;;;12.83;76.18;101902.50;5052224;28;20028;-61
2023/06/06 04:24:44;;;;;;;15.95;12.85;;;;;;;12.89;76.07;101910.16;5023722;28;20077;-60
2023/06/06 04:27:10;;;;;;;13.63;12.23;;;;;;;12.90;76.79;101911.88;4949615;28;20470;-61
2023/06/06 04:29:36;;;;;;;15.07;12.05;;;;;;;12.89;76.48;101919.97;4950718;28;20035;-60
2023/06/06 04:32:02;;;;;;;17.92;12.98;;;;;;;12.84;76.38;101912.22;4950203;28;20444;-61
2023/06/06 04:34:31;;;;;;;15.43;12.55;;;;;;;12.77;77.03;101920.66;4951755;28;20031;-61
2023/06/06 04:37:03;;;;;;;13.82;12.32;;;;;;;12.89;76.60;101917.31;4951545;28;20024;-60
2023/06/06 04:39:31;;;;;;;15.10;12.48;;;;;;;12.64;77.76;101923.13;4950952;28;20031;-60
2023/06/06 04:41:58;;;;;;;18.65;13.45;;;;;;;12.81;77.09;101923.06;4982237;28;20038;-61
2023/06/06 04:44:27;;;;;;;15.27;12.70;;;;;;;12.62;77.42;101909.88;4951146;28;20481;-61
2023/06/06 04:47:00;;;;;;;14.77;12.57;;;;;;;12.61;78.03;101924.13;4951302;28;20027;-61
2023/06/06 04:49:26;;;;;;;14.55;12.40;;;;;;;12.66;77.86;101919.41;4951249;28;20038;-61
2023/06/06 04:51:55;;;;;;;14.35;12.50;;;;;;;12.73;77.91;101911.94;4951923;28;20585;-61
2023/06/06 04:54:23;;;;;;;15.50;11.57;;;;;;;12.85;77.44;101911.28;4950946;28;20023;-61
2023/06/06 04:56:51;;;;;;;13.32;11.88;;;;;;;12.85;77.41;101910.41;4950936;28;20490;-60
2023/06/06 04:59:17;;;;;;;15.57;13.70;;;;;;;12.79;77.52;101916.94;4950930;28;20085;-61
2023/06/06 05:01:46;;;;;;;15.80;12.93;;;;;;;12.85;77.49;101921.06;4983614;28;20019;-61
2023/06/06 05:04:12;;;;;;;18.77;14.02;;;;;;;12.81;77.42;101901.69;4970117;28;20062;-61
2023/06/06 05:06:37;;;;;;;14.35;12.73;;;;;;;12.98;77.36;101913.25;4971451;28;20437;-61
2023/06/06 05:09:07;;;;;;;17.85;13.65;;;;;;;12.96;76.74;101916.00;4982842;28;20031;-61
2023/06/06 05:11:38;;;;;;;15.68;13.52;;;;;;;13.08;77.19;101919.78;4969819;28;20084;-60
2023/06/06 05:14:03;;;;;;;15.63;12.75;;;;;;;13.07;76.81;101920.75;4970058;28;20025;-60
2023/06/06 05:16:29;;;;;;;16.23;13.45;;;;;;;13.04;76.74;101913.78;4975829;28;20454;-61
2023/06/06 05:18:54;;;;;;;14.35;12.85;;;;;;;13.15;76.70;101918.50;4968879;28;20030;-60
2023/06/06 05:21:20;;;;;;;13.65;12.18;;;;;;;13.24;76.21;101926.00;4969520;28;20504;-60
2023/06/06 05:23:46;;;;;;;14.55;12.88;;;;;;;13.26;76.42;101928.59;4975099;28;20477;-60
2023/06/06 05:26:12;;;;;;;14.52;13.02;;;;;;;13.29;76.10;101923.94;5059164;28;20031;-60
2023/06/06 05:28:38;;;;;;;14.25;12.77;;;;;;;13.37;75.96;101928.84;5007760;28;20034;-60
2023/06/06 05:31:07;;;;;;;16.50;13.63;;;;;;;13.34;75.79;101929.03;4983917;28;20045;-61
2023/06/06 05:33:33;;;;;;;17.30;13.52;;;;;;;13.32;75.78;101918.41;4983032;28;20459;-61
2023/06/06 05:35:59;;;;;;;16.77;13.45;;;;;;;13.39;75.84;101922.47;4980703;28;20062;-61
2023/06/06 05:38:25;;;;;;;16.20;13.93;;;;;;;13.37;75.63;101920.84;4969660;28;20043;-61
2023/06/06 05:40:51;;;;;;;17.33;14.35;;;;;;;13.45;75.49;101931.09;4972542;28;20027;-61
2023/06/06 05:43:16;;;;;;;21.05;13.82;;;;;;;13.45;75.39;101923.09;5003262;28;20112;-60
2023/06/06 05:45:41;;;;;;;15.50;13.85;;;;;;;13.63;75.34;101935.38;5072162;28;20040;-60
2023/06/06 05:48:07;;;;;;;16.67;13.18;;;;;;;13.53;74.88;101919.00;4986733;28;20023;-60
2023/06/06 05:50:32;;;;;;;16.27;12.30;;;;;;;13.69;74.15;101936.81;4971147;28;20023;-60
2023/06/06 05:52:58;;;;;;;16.90;13.50;;;;;;;13.57;74.51;101933.06;4972771;28;20488;-60
2023/06/06 05:55:34;;;;;;;14.90;12.80;;;;;;;13.78;74.54;101934.47;4984441;28;20539;-60
2023/06/06 05:58:00;;;;;;;17.30;13.52;;;;;;;13.81;74.08;101936.09;4986735;28;20030;-60
2023/06/06 06:00:27;;;;;;;18.23;14.18;;;;;;;13.97;73.93;101938.72;4989738;28;20041;-60
2023/06/06 06:02:55;;;;;;;18.58;13.35;;;;;;;13.95;73.99;101930.78;4975183;28;20576;-60
2023/06/06 06:05:28;;;;;;;18.08;13.35;;;;;;;13.96;73.18;101931.66;4984305;28;20441;-60
2023/06/06 06:08:01;;;;;;;18.90;14.30;;;;;;;14.05;74.41;101948.00;4959900;28;20015;-60
2023/06/06 06:10:31;;;;;;;16.80;13.55;;;;;;;14.03;73.42;101932.97;4972584;28;20030;-61
2023/06/06 06:13:00;;;;;;;16.48;12.98;;;;;;;14.19;73.43;101930.25;5072319;28;20385;-60
2023/06/06 06:15:26;;;;;;;17.15;13.80;;;;;;;14.30;72.93;101927.78;5000838;28;20081;-60
2023/06/06 06:17:51;;;;;;;16.55;14.07;;;;;;;14.41;72.60;101938.72;4989465;28;20033;-61
2023/06/06 06:20:19;;;;;;;15.93;13.38;;;;;;;14.47;72.17;101942.78;4986010;28;20042;-60
2023/06/06 06:22:45;;;;;;;15.57;12.45;;;;;;;14.53;72.14;101937.13;4990862;28;20033;-60
2023/06/06 06:25:14;;;;;;;18.13;13.07;;;;;;;14.70;71.74;101936.03;4975340;28;20026;-60
2023/06/06 06:27:40;;;;;;;17.27;12.90;;;;;;;14.68;71.69;101944.19;5053757;28;20126;-60
2023/06/06 06:30:06;;;;;;;16.42;13.85;;;;;;;14.75;71.77;101942.84;4965169;28;20499;-60
2023/06/06 06:32:33;;;;;;;15.75;13.40;;;;;;;14.80;71.25;101939.03;4991635;28;20385;-60
2023/06/06 06:35:02;;;;;;;21.92;13.13;;;;;;;14.77;71.54;101948.09;4989113;28;20110;-60
2023/06/06 06:37:31;;;;;;;14.93;13.13;;;;;;;14.93;70.87;101950.66;4990534;28;20347;-61
2023/06/06 06:39:59;;;;;;;15.13;13.50;;;;;;;14.97;70.56;101944.13;4986173;28;20109;-61
2023/06/06 06:42:25;;;;;;;15.40;13.82;;;;;;;15.08;70.64;101944.31;4991011;28;20393;-60
2023/06/06 06:44:53;;;;;;;17.70;13.80;;;;;;;15.10;69.61;101945.06;4976836;28;20035;-61
2023/06/06 06:47:19;;;;;;;20.30;12.93;;;;;;;15.20;69.38;101943.50;4970820;28;20027;-61
2023/06/06 06:49:45;;;;;;;15.65;13.32;;;;;;;15.38;69.23;101954.00;4970792;28;20398;-61
2023/06/06 06:52:11;;;;;;;17.08;13.10;;;;;;;15.44;69.23;101954.47;4972657;28;20023;-61
2023/06/06 06:54:58;;;;;;;14.15;12.75;;;;;;;15.51;69.18;101954.91;4983804;28;20105;-61
2023/06/06 06:57:28;;;;;;;15.48;13.43;;;;;;;15.44;69.02;101957.16;4970989;28;20473;-61
2023/06/06 06:59:58;;;;;;;16.83;13.23;;;;;;;15.45;68.41;101964.22;5071718;28;20442;-61
2023/06/06 07:02:26;;;;;;;17.15;13.07;;;;;;;15.53;68.51;101957.47;5015411;28;20135;-61
2023/06/06 07:04:59;;;;;;;19.17;13.02;;;;;;;15.72;67.94;101960.72;4976511;28;20027;-61
2023/06/06 07:07:25;;;;;;;15.65;12.23;;;;;;;15.82;67.26;101963.63;4970656;28;20113;-61
2023/06/06 07:09:51;;;;;;;16.98;13.00;;;;;;;15.80;67.81;101950.31;5071308;28;20119;-61
2023/06/06 07:12:17;;;;;;;15.98;14.05;;;;;;;15.91;67.18;101952.25;4969676;28;20035;-61
2023/06/06 07:14:42;;;;;;;15.90;13.43;;;;;;;16.07;66.96;101947.59;4971323;28;20084;-61
2023/06/06 07:17:08;;;;;;;17.23;13.45;;;;;;;16.20;66.92;101955.63;4972711;28;20018;-61
2023/06/06 07:19:36;;;;;;;15.40;13.32;;;;;;;16.07;66.94;101947.59;5071561;28;20054;-61
2023/06/06 07:22:04;;;;;;;21.50;13.20;;;;;;;16.14;66.73;101958.75;5065853;28;20026;-61
2023/06/06 07:24:29;;;;;;;20.25;13.23;;;;;;;16.32;65.91;101948.56;4978004;28;20027;-61
2023/06/06 07:26:55;;;;;;;15.73;13.00;;;;;;;16.46;65.63;101945.78;5071558;28;20027;-61
2023/06/06 07:29:21;;;;;;;17.52;13.30;;;;;;;16.50;64.99;101954.47;4979956;28;20031;-61
2023/06/06 07:31:47;;;;;;;18.83;13.20;;;;;;;16.58;64.92;101958.31;4969971;28;20035;-61
2023/06/06 07:34:13;;;;;;;17.08;13.40;;;;;;;16.73;63.98;101952.84;4970842;28;20038;-61
2023/06/06 07:36:40;;;;;;;15.40;12.55;;;;;;;16.78;64.48;101954.25;5002841;28;20023;-61
2023/06/06 07:39:06;;;;;;;16.17;12.48;;;;;;;17.00;64.93;101936.56;4971333;28;20114;-61
2023/06/06 07:41:33;;;;;;;18.92;13.07;;;;;;;17.15;62.90;101943.53;4971130;28;20208;-61
2023/06/06 07:43:59;;;;;;;16.20;12.13;;;;;;;17.26;63.02;101942.75;4971285;28;20084;-61
2023/06/06 07:46:24;;;;;;;17.08;12.65;;;;;;;17.21;62.83;101937.72;4970774;28;20436;-61
2023/06/06 07:48:51;;;;;;;16.95;12.15;;;;;;;17.39;62.40;101935.50;4971275;28;20023;-61
2023/06/06 07:51:16;;;;;;;14.38;12.27;;;;;;;17.48;61.73;101933.94;4971049;28;20053;-61
2023/06/06 07:53:43;;;;;;;16.52;12.48;;;;;;;17.61;61.56;101920.41;5002430;28;20026;-61
2023/06/06 07:56:09;;;;;;;18.80;11.82;;;;;;;17.60;61.37;101930.31;4970942;28;20034;-61
2023/06/06 07:58:42;;;;;;;18.50;12.10;;;;;;;17.69;62.23;101928.78;4971048;28;20026;-61
2023/06/06 08:01:11;;;;;;;17.55;12.57;;;;;;;17.86;61.41;101931.06;4968999;28;20077;-61
2023/06/06 08:03:36;;;;;;;21.30;12.63;;;;;;;18.09;60.70;101931.16;5001134;28;20421;-61
2023/06/06 08:06:02;;;;;;;15.73;11.82;;;;;;;18.11;60.51;101923.78;4970911;28;20044;-61
2023/06/06 08:08:31;;;;;;;21.75;12.75;;;;;;;18.10;60.01;101924.78;4970853;28;20031;-60
2023/06/06 08:10:56;;;;;;;13.13;11.50;;;;;;;18.19;60.46;101934.81;4970091;28;20022;-61
2023/06/06 08:13:24;;;;;;;17.95;12.82;;;;;;;18.21;59.74;101926.63;4970594;28;20137;-61
2023/06/06 08:15:50;;;;;;;17.90;12.68;;;;;;;18.34;59.67;101922.84;4968205;28;20026;-61
2023/06/06 08:18:16;;;;;;;14.73;12.30;;;;;;;18.40;60.10;101934.97;5068527;28;20034;-61
2023/06/06 08:20:41;;;;;;;12.98;11.60;;;;;;;18.46;59.94;101931.78;4980331;28;20022;-61
2023/06/06 08:23:07;;;;;;;21.15;12.20;;;;;;;18.45;59.80;101943.56;4987669;28;20489;-59
2023/06/06 08:25:37;;;;;;;15.93;12.43;;;;;;;18.60;59.68;101946.88;4972400;28;20030;-59
2023/06/06 08:28:03;;;;;;;19.02;11.93;;;;;;;18.44;59.64;101932.88;4976757;28;20046;-59
2023/06/06 08:30:28;;;;;;;14.38;12.30;;;;;;;18.53;60.12;101930.34;4968415;28;20062;-59
2023/06/06 08:32:54;;;;;;;13.93;11.57;;;;;;;18.58;59.82;101930.81;4972762;28;20107;-59
2023/06/06 08:35:19;;;;;;;15.25;12.07;;;;;;;18.67;59.69;101915.75;4970666;28;20114;-59
2023/06/06 08:37:46;;;;;;;14.20;11.38;;;;;;;18.74;59.60;101925.09;5069883;28;20105;-59
2023/06/06 08:40:12;;;;;;;17.98;11.45;;;;;;;18.90;59.54;101923.84;4969605;28;20034;-59
2023/06/06 08:42:48;;;;;;;19.95;12.07;;;;;;;19.00;58.84;101931.09;4970792;28;20126;-59
2023/06/06 08:45:15;;;;;;;12.80;11.45;;;;;;;19.12;58.84;101929.22;4974420;28;20030;-59
2023/06/06 08:47:42;;;;;;;17.98;12.85;;;;;;;19.19;57.86;101930.41;5066239;28;20138;-59
2023/06/06 08:50:09;;;;;;;16.42;12.15;;;;;;;19.20;57.36;101932.13;5066851;28;20022;-60
2023/06/06 08:52:35;;;;;;;17.20;11.77;;;;;;;19.20;58.47;101928.56;4969741;28;20019;-59
2023/06/06 08:55:01;;;;;;;16.83;11.32;;;;;;;19.20;58.39;101915.94;5066647;28;20023;-59
2023/06/06 08:57:27;;;;;;;14.77;11.13;;;;;;;19.43;58.41;101924.81;4967418;28;20031;-59
2023/06/06 08:59:52;;;;;;;14.23;11.13;;;;;;;19.44;57.57;101918.47;4966661;28;20096;-59
2023/06/06 09:02:18;;;;;;;13.73;11.43;;;;;;;19.63;56.98;101930.41;4968971;28;20085;-59
2023/06/06 09:04:44;;;;;;;14.02;11.13;;;;;;;19.61;56.65;101916.16;4965007;28;20358;-59
2023/06/06 09:07:12;;;;;;;14.73;10.93;;;;;;;19.72;57.01;101930.50;5067366;28;20152;-59
2023/06/06 09:09:45;;;;;;;19.17;11.23;;;;;;;19.82;57.22;101927.03;4969771;28;20057;-59
2023/06/06 09:12:10;;;;;;;12.95;11.52;;;;;;;19.84;57.18;101930.47;4970211;28;20022;-59
2023/06/06 09:14:36;;;;;;;15.93;11.98;;;;;;;19.82;56.24;101921.63;4971891;28;20114;-59
2023/06/06 09:17:03;;;;;;;19.55;11.20;;;;;;;19.84;56.60;101925.06;4973607;28;20023;-59
2023/06/06 09:19:32;;;;;;;17.75;12.00;;;;;;;19.81;57.78;101925.31;4973201;28;20031;-59
2023/06/06 09:22:00;;;;;;;13.00;11.70;;;;;;;19.81;56.46;101917.22;4991465;28;20484;-60
2023/06/06 09:24:26;;;;;;;19.25;10.95;;;;;;;19.92;56.37;101920.72;4983785;28;20054;-59
2023/06/06 09:26:54;;;;;;;14.85;10.80;;;;;;;20.11;56.92;101921.81;4983349;28;20400;-59
2023/06/06 09:29:20;;;;;;;17.33;10.95;;;;;;;20.06;56.29;101924.94;4987217;28;20030;-59
2023/06/06 09:31:48;;;;;;;15.18;11.20;;;;;;;20.11;56.66;101913.72;4991832;28;20026;-59
2023/06/06 09:34:14;;;;;;;15.17;10.63;;;;;;;20.17;56.28;101911.34;4992661;28;20050;-59
2023/06/06 09:36:43;;;;;;;20.35;11.25;;;;;;;20.23;56.33;101909.94;4988191;28;20712;-59
2023/06/06 09:39:11;;;;;;;16.13;11.18;;;;;;;20.39;55.57;101906.78;4990200;28;20114;-59
2023/06/06 09:41:47;;;;;;;13.38;10.50;;;;;;;20.45;56.52;101917.06;4988749;28;20046;-59
2023/06/06 09:44:31;;;;;;;17.38;10.73;;;;;;;20.45;55.04;101911.66;4992090;28;20030;-60
2023/06/06 09:47:03;;;;;;;18.95;10.90;;;;;;;20.49;55.29;101917.63;4988020;28;20033;-60
2023/06/06 09:49:35;;;;;;;15.15;11.07;;;;;;;20.54;54.99;101904.59;4991171;28;20101;-59
2023/06/06 09:52:03;;;;;;;14.00;9.93;;;;;;;20.71;54.69;101909.38;4991141;28;20465;-59
2023/06/06 09:54:31;;;;;;;18.25;10.50;;;;;;;20.89;54.86;101901.44;4992144;28;20041;-59
2023/06/06 09:56:57;;;;;;;13.15;10.68;;;;;;;21.02;54.64;101904.75;4988427;28;20026;-60
2023/06/06 09:59:27;;;;;;;15.35;10.30;;;;;;;21.06;54.47;101905.31;4990990;28;20095;-60
2023/06/06 10:02:05;;;;;;;14.35;10.60;;;;;;;21.12;53.55;101899.38;4987375;28;20031;-59
2023/06/06 10:04:32;;;;;;;16.45;10.75;;;;;;;21.19;53.85;101897.81;4989031;28;20045;-58
2023/06/06 10:07:02;;;;;;;16.05;10.15;;;;;;;21.28;54.14;101896.94;4987974;28;20049;-59
2023/06/06 10:09:28;;;;;;;13.35;10.85;;;;;;;21.44;53.42;101890.16;4987983;28;20574;-59
2023/06/06 10:11:54;;;;;;;16.10;9.70;;;;;;;21.57;53.35;101889.88;4970329;28;20051;-60
2023/06/06 10:14:21;;;;;;;13.80;9.80;;;;;;;21.54;51.69;101883.75;4968428;28;20029;-59
2023/06/06 10:16:47;;;;;;;15.60;10.10;;;;;;;21.65;52.78;101892.72;4971955;28;20039;-59
2023/06/06 10:19:13;;;;;;;11.00;9.70;;;;;;;21.70;53.14;101890.44;4972221;28;20031;-59
2023/06/06 10:21:40;;;;;;;16.17;10.82;;;;;;;21.70;51.96;101885.00;4984946;28;20039;-59
2023/06/06 10:24:08;;;;;;;14.10;9.13;;;;;;;21.88;50.81;101891.41;4985331;28;20077;-60
2023/06/06 10:26:52;;;;;;;14.77;9.30;;;;;;;22.10;51.30;101887.50;4971404;28;20441;-59
2023/06/06 10:29:31;;;;;;;16.90;9.88;;;;;;;22.05;51.56;101887.09;4976441;28;20482;-59
2023/06/06 10:32:12;;;;;;;15.38;10.30;;;;;;;22.10;51.60;101887.50;4985812;28;20026;-59
2023/06/06 10:34:40;;;;;;;16.05;9.68;;;;;;;22.16;50.99;101888.78;4991788;28;20030;-59
2023/06/06 10:37:20;;;;;;;11.60;9.95;;;;;;;22.20;51.69;101887.50;4990813;28;20022;-58
2023/06/06 10:39:50;;;;;;;15.55;9.82;;;;;;;22.25;52.01;101887.94;4990681;28;20113;-59
2023/06/06 10:42:15;;;;;;;15.48;9.20;;;;;;;22.32;50.74;101875.47;4986628;28;20030;-60
2023/06/06 10:44:43;;;;;;;14.77;8.77;;;;;;;22.41;51.03;101890.00;4974728;28;20500;-59
2023/06/06 10:47:21;;;;;;;14.27;9.63;;;;;;;22.51;51.73;101887.28;4987516;28;20053;-59
2023/06/06 10:50:11;;;;;;;14.05;8.98;;;;;;;22.59;51.19;101876.50;4991413;28;20041;-59
2023/06/06 10:52:43;;;;;;;14.48;8.90;;;;;;;22.71;49.64;101877.16;4976319;28;20038;-59
2023/06/06 10:55:32;;;;;;;13.93;8.68;;;;;;;22.74;49.45;101880.44;5005700;28;20034;-58
2023/06/06 10:58:04;;;;;;;;;;;;;;;22.81;49.65;101881.53;4988745;28;20061;-59
2023/06/06 11:00:43;;;;;;;14.52;8.30;;;;;;;22.71;48.37;101869.91;4986634;28;19921;-59
2023/06/06 11:03:16;;;;;;;15.32;8.70;;;;;;;22.97;48.71;101869.19;4989970;28;20058;-59
2023/06/06 11:06:00;;;;;;;12.10;8.10;;;;;;;23.02;48.99;101870.44;4991133;28;20027;-59
2023/06/06 11:08:44;;;;;;;18.23;8.55;;;;;;;23.05;49.06;101869.28;4983288;28;20431;-59
2023/06/06 11:11:19;;;;;;;13.88;8.65;;;;;;;23.16;49.10;101868.22;4988361;28;20029;-59
2023/06/06 11:13:57;;;;;;;13.45;8.40;;;;;;;23.24;48.32;101860.16;4991127;28;20030;-59
2023/06/06 11:16:43;;;;;;;13.05;7.72;;;;;;;23.25;47.60;101861.84;4990814;28;20030;-59
2023/06/06 11:19:11;;;;;;;15.00;8.25;;;;;;;23.20;47.71;101870.44;4974195;28;20029;-60
2023/06/06 11:21:44;;;;;;;14.73;7.90;;;;;;;23.31;47.16;101864.78;4972126;28;20049;-59
2023/06/06 11:24:10;;;;;;;10.23;7.80;;;;;;;23.39;47.68;101855.03;4982448;28;20023;-59
2023/06/06 11:26:39;;;;;;;15.90;8.35;;;;;;;23.43;48.47;101859.97;4971408;28;20053;-59
2023/06/06 11:29:08;;;;;;;14.63;8.10;;;;;;;23.54;47.17;101864.31;4970881;28;20027;-59
2023/06/06 11:31:37;;;;;;;13.80;7.85;;;;;;;23.46;47.51;101847.97;4989162;28;20177;-60
2023/06/06 11:34:12;;;;;;;14.75;8.38;;;;;;;23.53;47.35;101849.91;4990668;28;20022;-59
2023/06/06 11:36:41;;;;;;;10.07;7.47;;;;;;;23.68;46.82;101860.16;4974054;28;20030;-59
2023/06/06 11:39:08;;;;;;;14.13;7.63;;;;;;;23.65;45.62;101846.91;4990283;28;20058;-59
2023/06/06 11:41:36;;;;;;;11.38;7.70;;;;;;;23.68;45.79;101849.31;4990552;28;20377;-59
2023/06/06 11:44:02;;;;;;;7.95;6.78;;;;;;;23.90;46.73;101853.41;4981362;28;20110;-59
2023/06/06 11:46:29;;;;;;;10.25;7.45;;;;;;;23.86;46.19;101850.19;4990101;28;20219;-59
2023/06/06 11:48:59;;;;;;;15.30;7.07;;;;;;;23.99;45.58;101847.03;4989427;28;20026;-59
2023/06/06 11:51:29;;;;;;;15.98;7.47;;;;;;;24.10;45.87;101845.91;4987659;28;20461;-59
2023/06/06 11:53:57;;;;;;;10.07;7.10;;;;;;;24.03;46.28;101838.41;4978278;28;20031;-59
2023/06/06 11:56:25;;;;;;;11.45;7.13;;;;;;;24.23;46.32;101832.72;4988915;28;20034;-61
2023/06/06 11:58:50;;;;;;;11.00;7.63;;;;;;;24.18;46.58;101835.94;4987093;28;20033;-59
2023/06/06 12:01:17;;;;;;;12.43;6.38;;;;;;;24.25;46.64;101842.41;4989751;28;20042;-59
2023/06/06 12:03:43;;;;;;;13.18;6.90;;;;;;;24.28;46.39;101832.25;4984514;28;20046;-59
2023/06/06 12:06:10;;;;;;;13.23;6.50;;;;;;;24.41;44.77;101829.91;4988401;28;20069;-60
2023/06/06 12:08:37;;;;;;;18.30;7.05;;;;;;;24.35;45.20;101833.28;4989079;28;20033;-60
2023/06/06 12:11:26;;;;;;;11.38;6.70;;;;;;;24.44;44.98;101832.31;4975960;28;20482;-59
2023/06/06 12:13:52;;;;;;;8.60;6.38;;;;;;;24.52;44.40;101832.38;4981795;28;20034;-60
2023/06/06 12:16:25;;;;;;;10.25;7.28;;;;;;;24.51;45.79;101821.66;4985754;28;20035;-60
2023/06/06 12:18:51;;;;;;;12.95;7.45;;;;;;;24.45;46.50;101831.31;4977845;28;20034;-60
2023/06/06 12:21:17;;;;;;;10.25;6.13;;;;;;;24.55;42.76;101839.34;4953549;28;20043;-60
2023/06/06 12:23:44;;;;;;;8.07;6.35;;;;;;;24.53;43.56;101838.66;4982555;28;20069;-59
2023/06/06 12:26:15;;;;;;;10.23;6.40;;;;;;;24.47;43.96;101830.16;4968227;28;20030;-59
2023/06/06 12:28:57;;;;;;;10.15;5.95;;;;;;;24.54;41.42;101835.78;4989839;28;20362;-60
2023/06/06 12:31:27;;;;;;;8.88;5.90;;;;;;;24.53;41.60;101833.22;4980633;28;20080;-60
2023/06/06 12:33:56;;;;;;;12.25;5.20;;;;;;;24.67;41.69;101816.25;4970581;28;20030;-61
2023/06/06 12:36:24;;;;;;;9.55;5.55;;;;;;;24.73;42.83;101823.75;4969077;28;20072;-61
2023/06/06 12:39:13;;;;;;;6.95;5.07;;;;;;;24.69;41.71;101820.53;4970598;28;20035;-61
2023/06/06 12:41:42;;;;;;;10.80;5.93;;;;;;;24.84;43.37;101811.72;4985558;28;20058;-61
2023/06/06 12:44:14;;;;;;;8.85;6.25;;;;;;;24.85;43.35;101807.97;4974130;28;20117;-62
2023/06/06 12:46:42;;;;;;;12.07;6.22;;;;;;;24.91;43.42;101812.75;4981448;28;20037;-62
2023/06/06 12:49:10;;;;;;;12.55;6.53;;;;;;;25.04;41.94;101815.84;4969821;28;20540;-60
2023/06/06 12:51:38;;;;;;;;;;;;;;;25.08;41.47;101798.13;4980497;28;20062;-61